Time;durP1;ratioP1;P1;durP2;ratioP2;P2;SDS_P1;SDS_P2;PMS_P1;PMS_P2;Temp;Humidity;BMP_temperature;BMP_pressure;BME280_temperature;BME280_humidity;BME280_pressure;Samples;Min_cycle;Max_cycle;Signal;HPM_P1;HPM_P2
2022/04/02 00:12:34;;;;;;;13.20;8.00;;;20.30;61.20;;;;;;5645856;23;20251;-58
2022/04/02 00:15:10;;;;;;;13.48;6.93;;;20.30;61.10;;;;;;5011251;28;20366;-55
2022/04/02 00:17:46;;;;;;;10.70;5.15;;;20.30;60.90;;;;;;5010733;28;20574;-58
2022/04/02 00:20:17;;;;;;;8.07;5.00;;;20.30;60.90;;;;;;5010071;28;20660;-58
2022/04/02 00:25:31;;;;;;;7.22;4.15;;;20.40;60.80;;;;;;5009551;28;20201;-57
2022/04/02 00:28:03;;;;;;;6.85;3.70;;;20.40;60.80;;;;;;5010142;28;20658;-58
2022/04/02 00:30:33;;;;;;;12.60;4.60;;;20.40;60.90;;;;;;5010262;28;20587;-58
2022/04/02 00:33:04;;;;;;;8.88;4.10;;;20.40;60.90;;;;;;5010061;28;20299;-58
2022/04/02 00:35:34;;;;;;;7.00;4.03;;;20.40;61.00;;;;;;5010023;28;20643;-57
2022/04/02 00:38:05;;;;;;;7.55;3.50;;;20.50;61.10;;;;;;5010171;28;20324;-58
2022/04/02 00:40:37;;;;;;;10.02;4.35;;;20.50;61.10;;;;;;5009828;28;20423;-58
2022/04/02 00:43:10;;;;;;;6.15;3.40;;;20.60;61.10;;;;;;5009968;28;20915;-58
2022/04/02 00:45:40;;;;;;;9.10;3.67;;;20.50;61.10;;;;;;5009994;28;20648;-57
2022/04/02 00:48:11;;;;;;;5.47;3.75;;;20.60;61.20;;;;;;5009663;28;20656;-58
2022/04/02 00:50:41;;;;;;;6.25;3.65;;;20.60;61.20;;;;;;5009039;28;20297;-57
2022/04/02 00:53:12;;;;;;;4.82;3.40;;;20.60;61.20;;;;;;5010402;28;20272;-58
2022/04/02 00:55:44;;;;;;;6.63;3.50;;;20.70;61.20;;;;;;5022928;23;20228;-56
2022/04/02 00:58:17;;;;;;;7.10;3.67;;;20.70;61.20;;;;;;5009899;28;20216;-56
2022/04/02 01:00:48;;;;;;;6.75;3.40;;;20.70;61.20;;;;;;4996140;28;20308;-56
2022/04/02 01:03:18;;;;;;;5.85;3.38;;;20.70;61.10;;;;;;4990418;28;20340;-56
2022/04/02 01:05:49;;;;;;;6.65;3.45;;;20.80;61.10;;;;;;5002787;28;20207;-56
2022/04/02 01:08:20;;;;;;;6.22;3.47;;;20.80;61.10;;;;;;5009683;28;20323;-56
2022/04/02 01:10:50;;;;;;;4.55;3.13;;;20.80;61.00;;;;;;5010299;28;20279;-56
2022/04/02 01:13:23;;;;;;;5.20;3.38;;;20.90;61.00;;;;;;5009827;28;20566;-55
2022/04/02 01:15:53;;;;;;;5.82;3.70;;;20.90;61.00;;;;;;5010181;28;20203;-56
2022/04/02 01:18:24;;;;;;;6.97;3.60;;;20.90;60.90;;;;;;5009967;28;20248;-56
2022/04/02 01:20:54;;;;;;;4.85;3.42;;;20.90;60.90;;;;;;5009470;28;20235;-56
2022/04/02 01:23:29;;;;;;;6.22;3.35;;;21.00;60.90;;;;;;5003000;28;20212;-56
2022/04/02 01:26:00;;;;;;;4.10;3.10;;;21.00;60.90;;;;;;4990129;28;20236;-56
2022/04/02 01:28:33;;;;;;;5.68;3.58;;;21.00;60.90;;;;;;4989778;28;20886;-55
2022/04/02 01:31:08;;;;;;;5.10;3.40;;;21.10;60.90;;;;;;4990008;28;20756;-56
2022/04/02 01:33:39;;;;;;;6.72;3.55;;;21.10;61.00;;;;;;4990202;28;20197;-56
2022/04/02 01:36:10;;;;;;;4.68;3.08;;;21.10;60.90;;;;;;5003770;28;20282;-56
2022/04/02 01:38:42;;;;;;;4.30;3.20;;;21.10;60.80;;;;;;5009868;28;20303;-56
2022/04/02 01:41:13;;;;;;;3.47;2.80;;;21.10;60.80;;;;;;5009685;28;20320;-56
2022/04/02 01:43:44;;;;;;;5.25;3.13;;;21.20;60.80;;;;;;5009173;28;20196;-56
2022/04/02 01:46:15;;;;;;;4.88;3.15;;;21.20;60.80;;;;;;5009575;28;20286;-55
2022/04/02 01:48:45;;;;;;;4.50;2.88;;;21.20;60.80;;;;;;5003741;28;20315;-56
2022/04/02 01:51:16;;;;;;;3.97;2.20;;;21.30;60.70;;;;;;5008504;28;20284;-56
2022/04/02 01:56:26;;;;;;;5.45;3.92;;;21.30;60.40;;;;;;5025546;28;20243;-57
2022/04/02 01:58:57;;;;;;;7.28;3.40;;;21.40;60.50;;;;;;5027790;28;20302;-59
2022/04/02 02:01:27;;;;;;;4.38;2.70;;;21.50;60.40;;;;;;5027306;28;20216;-59
2022/04/02 02:03:57;;;;;;;5.47;2.50;;;21.50;59.70;;;;;;5027286;28;20283;-60
2022/04/02 02:06:28;;;;;;;6.07;1.67;;;21.50;58.90;;;;;;5026366;28;20237;-59
2022/04/02 02:08:58;;;;;;;4.82;1.50;;;21.50;58.40;;;;;;5026060;28;20212;-59
2022/04/02 02:11:31;;;;;;;4.75;1.70;;;21.50;58.20;;;;;;5026812;28;20633;-60
2022/04/02 02:14:01;;;;;;;6.93;1.50;;;21.50;58.10;;;;;;5022933;28;20196;-58
2022/04/02 02:16:32;;;;;;;4.32;1.75;;;21.50;58.00;;;;;;5024930;28;20299;-64
2022/04/02 02:19:02;;;;;;;22.35;5.18;;;21.40;57.90;;;;;;5026054;28;20707;-60
2022/04/02 02:21:32;;;;;;;14.77;3.22;;;21.40;57.70;;;;;;5029463;28;20837;-64
2022/04/02 02:24:04;;;;;;;17.77;4.88;;;21.40;57.60;;;;;;5030205;28;20628;-60
2022/04/02 02:26:36;;;;;;;10.80;3.17;;;21.40;57.50;;;;;;5031033;28;20193;-61
2022/04/02 02:29:07;;;;;;;22.73;4.25;;;21.30;57.30;;;;;;5030908;28;20770;-58
2022/04/02 02:31:37;;;;;;;6.78;2.30;;;21.30;57.20;;;;;;5031762;28;20275;-64
2022/04/02 02:36:55;;;;;;;6.93;2.25;;;21.30;57.20;;;;;;5031262;28;20215;-63
2022/04/02 02:39:25;;;;;;;16.15;3.83;;;21.30;57.20;;;;;;5031038;28;20585;-57
2022/04/02 02:41:58;;;;;;;10.68;3.10;;;21.20;57.20;;;;;;5030968;28;21633;-64
2022/04/02 02:44:28;;;;;;;10.60;2.42;;;21.20;57.20;;;;;;5030324;28;20200;-61
2022/04/02 02:46:59;;;;;;;5.72;1.85;;;21.20;57.30;;;;;;5029091;28;20288;-57
2022/04/02 02:49:29;;;;;;;8.55;1.80;;;21.20;57.40;;;;;;5030091;28;20303;-65
2022/04/02 02:51:59;;;;;;;10.35;2.05;;;21.20;57.50;;;;;;5029762;28;20288;-59
2022/04/02 02:54:30;;;;;;;4.30;1.67;;;21.20;58.20;;;;;;5030145;28;20291;-63
2022/04/02 02:57:02;;;;;;;5.15;1.70;;;21.20;57.60;;;;;;5028391;28;20273;-59
2022/04/02 02:59:33;;;;;;;5.95;1.30;;;21.10;57.60;;;;;;4998230;28;20221;-67
2022/04/02 03:02:03;;;;;;;4.57;1.50;;;21.10;57.60;;;;;;4992329;28;20232;-55
2022/04/02 03:04:34;;;;;;;7.95;2.47;;;21.20;57.70;;;;;;4991240;28;20264;-58
2022/04/02 03:07:04;;;;;;;5.35;1.80;;;21.10;57.70;;;;;;4998432;28;20201;-58
2022/04/02 03:09:35;;;;;;;6.22;1.98;;;21.10;57.90;;;;;;5010094;28;20308;-59
2022/04/02 03:12:09;;;;;;;5.25;1.75;;;21.10;58.10;;;;;;5010482;28;20617;-61
2022/04/02 03:14:43;;;;;;;7.80;1.50;;;21.10;58.20;;;;;;5008637;28;20208;-56
2022/04/02 03:17:13;;;;;;;7.72;1.83;;;21.10;58.20;;;;;;5012001;28;20281;-58
2022/04/02 03:19:43;;;;;;;5.45;1.65;;;21.10;58.20;;;;;;5011836;28;20196;-57
2022/04/02 03:22:14;;;;;;;3.95;1.45;;;21.10;58.30;;;;;;5011664;28;20231;-52
2022/04/02 03:24:44;;;;;;;4.55;1.65;;;21.20;58.60;;;;;;5023327;28;20279;-57
2022/04/02 03:27:17;;;;;;;5.03;1.67;;;21.10;58.60;;;;;;5029893;28;20715;-56
2022/04/02 03:29:47;;;;;;;5.78;1.60;;;21.20;58.60;;;;;;5029913;28;20283;-60
2022/04/02 03:32:18;;;;;;;4.60;1.58;;;21.20;58.50;;;;;;5027646;28;20204;-57
2022/04/02 03:34:48;;;;;;;3.65;1.48;;;21.30;58.60;;;;;;5030081;28;20718;-61
2022/04/02 03:37:18;;;;;;;4.88;1.40;;;21.30;58.60;;;;;;5029715;28;20630;-59
2022/04/02 03:39:49;;;;;;;3.88;1.70;;;21.40;58.60;;;;;;5028909;28;20633;-60
2022/04/02 03:42:21;;;;;;;6.65;1.77;;;21.50;58.70;;;;;;5028278;28;20231;-58
2022/04/02 03:44:52;;;;;;;3.22;1.23;;;21.50;58.60;;;;;;5029168;28;20287;-61
2022/04/02 03:47:23;;;;;;;5.78;1.45;;;21.60;58.70;;;;;;5029432;28;20746;-57
2022/04/02 03:49:53;;;;;;;4.55;1.35;;;21.60;58.70;;;;;;5029436;28;20695;-58
2022/04/02 03:52:24;;;;;;;2.33;1.30;;;21.70;58.60;;;;;;5029011;28;20209;-54
2022/04/02 04:26:06;;;;;;;2.78;1.00;;;22.40;57.80;;;;;;6060816;22;21547;-65
2022/04/02 04:28:42;;;;;;;3.40;1.30;;;22.50;57.70;;;;;;5001873;28;20680;-54
2022/04/02 04:31:17;;;;;;;1.30;0.93;;;22.60;57.70;;;;;;5004168;28;20326;-55
2022/04/02 04:33:47;;;;;;;2.17;1.02;;;22.60;57.60;;;;;;5007058;28;20212;-66
2022/04/02 04:36:18;;;;;;;2.40;1.05;;;22.70;57.60;;;;;;5005697;28;20193;-56
2022/04/02 04:38:49;;;;;;;2.35;1.08;;;22.70;57.50;;;;;;5006720;28;20299;-60
2022/04/02 04:41:22;;;;;;;2.80;1.15;;;22.80;57.60;;;;;;5004481;28;20223;-56
2022/04/02 04:43:52;;;;;;;2.90;1.33;;;22.80;57.40;;;;;;5005579;28;20262;-61
2022/04/02 04:46:23;;;;;;;3.50;1.15;;;22.90;57.40;;;;;;5004304;28;20197;-60
2022/04/02 04:48:53;;;;;;;4.60;1.42;;;22.90;57.40;;;;;;4996059;28;20217;-66
2022/04/02 04:51:24;;;;;;;4.78;1.23;;;22.90;57.40;;;;;;4991874;28;20302;-61
2022/04/02 04:54:00;;;;;;;2.13;1.05;;;22.90;57.30;;;;;;4990535;28;20205;-63
2022/04/02 04:56:32;;;;;;;2.65;1.40;;;23.00;57.20;;;;;;4990028;28;20531;-68
2022/04/02 04:59:03;;;;;;;3.83;1.40;;;23.00;57.20;;;;;;4990018;28;20562;-56
2022/04/02 05:01:33;;;;;;;3.63;1.55;;;23.10;57.30;;;;;;4990712;28;20232;-63
2022/04/02 05:04:04;;;;;;;5.57;1.70;;;23.10;57.10;;;;;;4991129;28;20553;-65
2022/04/02 05:06:35;;;;;;;3.90;1.52;;;23.10;57.10;;;;;;4990806;28;20209;-61
2022/04/02 05:09:06;;;;;;;4.05;1.58;;;23.10;57.10;;;;;;4990834;28;20304;-66
2022/04/02 05:11:39;;;;;;;4.72;1.63;;;23.10;57.00;;;;;;4990407;28;20291;-65
2022/04/02 05:14:09;;;;;;;3.13;1.50;;;23.20;57.00;;;;;;4990630;28;20260;-63
2022/04/02 05:16:40;;;;;;;3.42;1.65;;;23.20;56.80;;;;;;4990989;28;20272;-68
2022/04/02 05:19:11;;;;;;;4.68;1.75;;;23.20;56.80;;;;;;4990128;28;20224;-63
2022/04/02 05:21:41;;;;;;;5.53;1.70;;;23.20;56.70;;;;;;4990518;28;20264;-64
2022/04/02 05:24:11;;;;;;;7.20;1.80;;;23.20;56.70;;;;;;4990441;28;20202;-63
2022/04/02 05:26:47;;;;;;;3.22;1.55;;;23.20;56.60;;;;;;4990582;28;20216;-65
2022/04/02 05:29:17;;;;;;;2.92;1.30;;;23.20;56.40;;;;;;4990375;28;20227;-65
2022/04/02 05:31:48;;;;;;;3.70;1.40;;;23.20;56.30;;;;;;4990543;28;20964;-67
2022/04/02 05:34:19;;;;;;;3.47;1.30;;;23.20;56.30;;;;;;4989580;28;20201;-62
2022/04/02 05:36:49;;;;;;;3.92;1.77;;;23.20;56.40;;;;;;4989907;28;20284;-67
2022/04/02 05:39:20;;;;;;;2.83;1.40;;;23.20;56.30;;;;;;4990062;28;20304;-63
2022/04/02 05:41:53;;;;;;;4.60;1.45;;;23.20;56.30;;;;;;4990345;28;20235;-66
2022/04/02 05:44:24;;;;;;;2.90;1.48;;;23.30;56.30;;;;;;4990279;28;20205;-65
2022/04/02 05:46:54;;;;;;;3.25;1.48;;;23.30;56.20;;;;;;4990398;28;20345;-66
2022/04/02 05:49:25;;;;;;;3.72;1.40;;;23.30;56.30;;;;;;4989837;28;20296;-61
2022/04/02 05:51:55;;;;;;;3.67;1.45;;;23.30;56.30;;;;;;4989986;28;20233;-62
2022/04/02 05:54:26;;;;;;;3.22;1.52;;;23.20;56.30;;;;;;4992108;28;20288;-66
2022/04/02 05:56:59;;;;;;;3.25;1.38;;;23.20;56.40;;;;;;4994057;28;20236;-59
2022/04/02 05:59:30;;;;;;;2.05;1.02;;;23.20;56.30;;;;;;4994068;28;20210;-61
2022/04/02 06:02:00;;;;;;;3.15;1.50;;;23.20;56.30;;;;;;4993554;28;20585;-67
2022/04/02 06:04:31;;;;;;;4.15;1.50;;;23.20;56.30;;;;;;4993700;28;20197;-64
2022/04/02 06:07:01;;;;;;;2.58;1.42;;;23.20;56.30;;;;;;4993871;28;20747;-60
2022/04/02 06:09:32;;;;;;;3.50;1.70;;;23.10;56.30;;;;;;4994146;28;20312;-67
2022/04/02 06:12:04;;;;;;;3.28;1.88;;;23.10;56.30;;;;;;4993121;28;20284;-63
2022/04/02 06:14:34;;;;;;;3.47;1.40;;;23.10;56.30;;;;;;4993602;28;20284;-64
2022/04/02 06:17:05;;;;;;;1.42;1.25;;;23.10;56.30;;;;;;4993553;28;20623;-66
2022/04/02 06:19:35;;;;;;;2.95;1.48;;;23.10;56.30;;;;;;4992916;28;20213;-67
2022/04/02 06:22:06;;;;;;;1.83;1.30;;;23.10;56.30;;;;;;4993790;28;20787;-67
2022/04/02 06:24:37;;;;;;;4.30;1.58;;;23.10;56.40;;;;;;4993698;28;20240;-61
2022/04/02 06:27:09;;;;;;;3.80;1.80;;;23.10;56.40;;;;;;4993354;28;20205;-64
2022/04/02 06:29:40;;;;;;;2.90;1.35;;;23.10;56.40;;;;;;4992718;28;20312;-63
2022/04/02 06:32:11;;;;;;;3.20;1.40;;;23.10;56.40;;;;;;4992957;28;20276;-66
2022/04/02 06:34:41;;;;;;;3.33;1.50;;;23.10;56.40;;;;;;4992535;28;20661;-66
2022/04/02 06:37:11;;;;;;;3.63;2.00;;;23.10;56.50;;;;;;4992233;28;20634;-65
2022/04/02 06:39:42;;;;;;;2.97;1.60;;;23.10;56.50;;;;;;4993144;28;20284;-59
2022/04/02 06:42:14;;;;;;;2.97;1.45;;;23.00;56.50;;;;;;4992932;28;20311;-66
2022/04/02 06:44:45;;;;;;;2.03;1.20;;;23.00;56.40;;;;;;4992947;28;20664;-66
2022/04/02 06:47:15;;;;;;;2.50;1.60;;;23.00;56.40;;;;;;4992875;28;20625;-67
2022/04/02 06:49:46;;;;;;;3.83;1.63;;;23.00;56.50;;;;;;4992357;28;20849;-62
2022/04/02 06:52:16;;;;;;;4.35;1.58;;;23.00;56.40;;;;;;4992935;28;20198;-57
2022/04/02 07:57:26;;;;;;;3.67;1.63;;;22.60;56.70;;;;;;5097169;27;20533;-61
2022/04/02 08:00:03;;;;;;;2.08;1.40;;;22.60;56.80;;;;;;5064873;28;20249;-61
2022/04/02 08:02:42;;;;;;;3.38;1.58;;;22.60;56.80;;;;;;5063781;28;20195;-61
2022/04/02 08:05:14;;;;;;;1.85;1.20;;;22.50;57.40;;;;;;5066180;28;20737;-62
2022/04/02 08:07:49;;;;;;;2.85;1.20;;;22.50;56.80;;;;;;5065260;28;20297;-61
2022/04/02 08:10:20;;;;;;;2.28;1.40;;;22.50;56.80;;;;;;5065214;28;20201;-62
2022/04/02 08:12:54;;;;;;;2.75;1.60;;;22.50;56.80;;;;;;5060078;28;20199;-61
2022/04/02 08:15:25;;;;;;;2.05;1.17;;;22.50;56.90;;;;;;5062345;28;20268;-61
2022/04/02 08:17:57;;;;;;;2.92;1.67;;;22.50;56.90;;;;;;5064492;28;20217;-61
2022/04/02 08:20:28;;;;;;;2.38;1.63;;;22.50;56.90;;;;;;5064910;28;20252;-62
2022/04/02 08:22:58;;;;;;;2.58;1.50;;;22.50;56.90;;;;;;5064858;28;20278;-62
2022/04/02 08:25:29;;;;;;;2.90;1.90;;;22.50;56.90;;;;;;5061870;28;20273;-60
2022/04/02 08:28:11;;;;;;;2.92;1.58;;;22.40;56.90;;;;;;5064850;28;20290;-62
2022/04/02 08:30:47;;;;;;;1.60;1.30;;;22.40;56.90;;;;;;5064642;28;20274;-61
2022/04/02 08:33:39;;;;;;;2.60;1.65;;;22.40;56.90;;;;;;5064655;28;20273;-62
2022/04/02 08:36:18;;;;;;;3.40;1.65;;;22.40;56.90;;;;;;5064663;28;20318;-61
2022/04/02 08:38:56;;;;;;;3.80;1.90;;;22.40;56.90;;;;;;5064667;28;20218;-61
2022/04/02 08:42:01;;;;;;;2.20;1.52;;;22.40;56.90;;;;;;5064034;28;20195;-59
2022/04/02 08:45:13;;;;;;;3.28;1.92;;;22.30;56.90;;;;;;5063752;28;20195;-60
2022/04/02 08:48:28;;;;;;;3.00;1.90;;;22.30;57.00;;;;;;5061350;28;20220;-59
2022/04/02 08:51:14;;;;;;;2.20;1.63;;;22.30;57.00;;;;;;5064244;28;20394;-61
2022/04/02 08:53:54;;;;;;;2.63;1.70;;;22.30;57.00;;;;;;5064275;28;20285;-60
2022/04/02 09:43:08;;;;;;;2.10;1.63;;;22.00;57.10;;;;;;5441732;23;20241;-61
2022/04/02 09:45:52;;;;;;;2.17;1.40;;;22.00;57.10;;;;;;4971204;28;20202;-68
2022/04/02 09:48:29;;;;;;;1.85;1.50;;;22.00;57.10;;;;;;4971502;28;20765;-67
2022/04/02 09:51:00;;;;;;;2.10;1.38;;;22.00;57.10;;;;;;4971647;28;20225;-65
2022/04/02 09:53:31;;;;;;;2.05;1.27;;;22.00;57.20;;;;;;4971000;28;20289;-67
2022/04/02 09:56:18;;;;;;;2.45;1.40;;;22.00;57.10;;;;;;4974295;28;20236;-60
2022/04/02 09:59:06;;;;;;;2.80;1.63;;;22.00;57.20;;;;;;4973701;28;20304;-57
2022/04/02 10:01:41;;;;;;;1.98;1.15;;;22.00;57.20;;;;;;4972348;28;20194;-56
2022/04/02 10:04:41;;;;;;;2.75;1.50;;;22.00;57.20;;;;;;4972359;28;20669;-61
2022/04/02 10:07:21;;;;;;;1.65;1.40;;;21.90;57.20;;;;;;4972591;28;20201;-61
2022/04/02 10:09:55;;;;;;;2.13;1.60;;;21.90;57.20;;;;;;4972696;28;20705;-61
2022/04/02 10:12:29;;;;;;;1.80;1.30;;;21.90;57.20;;;;;;4972814;28;20292;-61
2022/04/02 10:15:03;;;;;;;1.45;1.35;;;21.90;57.20;;;;;;4972605;28;20293;-62
2022/04/02 10:17:36;;;;;;;1.60;1.27;;;21.90;57.30;;;;;;4972445;28;20265;-61
2022/04/02 10:20:10;;;;;;;2.15;1.42;;;21.90;57.30;;;;;;4963030;28;20187;-59
2022/04/02 10:22:44;;;;;;;2.72;1.83;;;21.90;57.30;;;;;;4954119;28;20290;-62
2022/04/02 10:25:16;;;;;;;2.33;1.60;;;21.90;57.30;;;;;;4972414;28;20296;-66
2022/04/02 10:27:47;;;;;;;1.88;1.20;;;21.80;57.20;;;;;;4972571;28;20306;-62
2022/04/02 10:30:20;;;;;;;2.55;1.77;;;21.90;57.30;;;;;;4972349;28;20198;-64
2022/04/02 10:33:26;;;;;;;2.78;1.52;;;21.80;57.30;;;;;;4972420;28;20199;-64
2022/04/02 10:35:51;;;;;;;2.67;1.42;;;21.80;57.30;;;;;;4971883;28;20226;-55
2022/04/02 10:38:35;;;;;;;3.03;1.52;;;21.80;57.20;;;;;;4972526;28;20309;-59
2022/04/02 10:41:10;;;;;;;2.35;1.40;;;21.80;57.30;;;;;;4972363;28;20194;-63
2022/04/02 10:43:53;;;;;;;2.47;1.45;;;21.80;57.30;;;;;;4972319;28;20235;-61
2022/04/02 10:46:28;;;;;;;2.05;1.60;;;21.80;57.30;;;;;;4972231;28;20285;-61
2022/04/02 10:49:00;;;;;;;2.05;1.55;;;21.70;57.30;;;;;;4971973;28;20312;-59
2022/04/02 10:51:32;;;;;;;1.73;1.25;;;21.70;57.30;;;;;;4972013;28;20670;-62
2022/04/02 10:54:06;;;;;;;2.13;1.50;;;21.70;57.30;;;;;;4972040;28;20204;-61
2022/04/02 10:56:42;;;;;;;2.25;1.55;;;21.70;57.40;;;;;;4966322;23;20249;-58
2022/04/02 10:59:14;;;;;;;1.85;1.48;;;21.70;57.30;;;;;;4952388;28;20721;-59
2022/04/02 11:01:49;;;;;;;3.75;1.73;;;21.70;57.40;;;;;;4952598;28;20804;-60
2022/04/02 11:04:32;;;;;;;1.40;1.30;;;21.70;57.40;;;;;;4952877;28;20229;-59
2022/04/02 11:07:03;;;;;;;2.97;1.40;;;21.70;57.40;;;;;;4952897;28;20230;-59
2022/04/02 11:09:36;;;;;;;3.50;1.80;;;21.70;57.40;;;;;;4952651;28;20310;-60
2022/04/02 11:12:11;;;;;;;2.28;1.63;;;21.70;57.40;;;;;;4937405;28;20211;-59
2022/04/02 11:14:43;;;;;;;1.92;1.40;;;21.60;57.40;;;;;;4932869;29;20282;-58
2022/04/02 11:17:30;;;;;;;2.10;1.65;;;21.60;57.40;;;;;;4933268;29;20793;-59
2022/04/02 11:20:09;;;;;;;2.00;1.45;;;21.60;57.40;;;;;;4933218;29;20196;-59
2022/04/02 11:23:12;;;;;;;2.38;1.58;;;21.60;57.40;;;;;;4933353;29;20258;-59
2022/04/02 11:25:49;;;;;;;2.80;1.70;;;21.60;57.40;;;;;;4933159;29;20546;-57
2022/04/02 11:28:21;;;;;;;2.10;1.50;;;21.60;57.40;;;;;;4933159;29;20893;-59
2022/04/02 11:30:52;;;;;;;2.53;1.70;;;21.60;57.50;;;;;;4933073;29;20671;-58
2022/04/02 11:33:26;;;;;;;1.63;1.33;;;21.60;57.50;;;;;;4932176;29;20763;-58
2022/04/02 11:35:57;;;;;;;2.03;1.40;;;21.50;57.40;;;;;;4932459;29;20278;-58
2022/04/02 11:38:34;;;;;;;1.58;1.20;;;21.50;57.50;;;;;;4932699;29;20674;-58
2022/04/02 11:41:15;;;;;;;1.60;1.42;;;21.50;57.50;;;;;;4932727;29;20646;-59
2022/04/02 11:43:47;;;;;;;2.35;1.40;;;21.50;57.50;;;;;;4932413;29;20204;-60
2022/04/02 11:46:19;;;;;;;2.38;1.63;;;21.50;57.50;;;;;;4932445;29;20207;-61
2022/04/02 11:48:59;;;;;;;2.25;1.65;;;21.50;57.50;;;;;;4933023;29;20353;-61
2022/04/02 11:51:33;;;;;;;2.13;1.30;;;21.50;57.50;;;;;;4932960;29;20200;-59
2022/04/02 11:54:05;;;;;;;1.98;1.38;;;21.50;57.50;;;;;;4932743;29;20209;-61
2022/04/02 11:56:37;;;;;;;1.88;1.38;;;21.50;57.50;;;;;;4970037;23;20321;-58
2022/04/02 11:59:09;;;;;;;1.88;1.50;;;21.50;57.60;;;;;;4956219;28;20309;-59
2022/04/02 12:01:44;;;;;;;3.17;1.55;;;21.50;57.60;;;;;;4951828;28;20199;-57
2022/04/02 12:04:18;;;;;;;1.95;1.58;;;21.50;57.60;;;;;;4951952;28;20730;-63
2022/04/02 12:06:49;;;;;;;1.73;1.25;;;21.40;57.60;;;;;;4952212;28;20242;-57
2022/04/02 12:09:22;;;;;;;2.33;1.30;;;21.50;57.70;;;;;;4952013;28;20225;-58
2022/04/02 12:11:55;;;;;;;2.60;1.15;;;21.50;57.60;;;;;;4951653;28;20285;-61
2022/04/02 12:14:34;;;;;;;1.80;1.45;;;21.40;57.60;;;;;;4951685;28;20571;-60
2022/04/02 12:17:09;;;;;;;1.95;1.27;;;21.40;57.60;;;;;;4948295;28;20229;-60
2022/04/02 12:19:48;;;;;;;2.00;1.30;;;21.40;57.60;;;;;;4951944;28;20640;-58
2022/04/02 12:22:31;;;;;;;2.08;1.33;;;21.40;57.60;;;;;;4952070;28;20209;-58
2022/04/02 12:25:03;;;;;;;2.83;1.52;;;21.40;57.60;;;;;;4952071;28;20213;-59
2022/04/02 12:27:34;;;;;;;1.60;1.48;;;21.30;57.60;;;;;;4951364;28;20282;-60
2022/04/02 12:30:07;;;;;;;1.92;1.70;;;21.40;57.70;;;;;;4951789;28;20203;-59
2022/04/02 12:32:38;;;;;;;2.17;1.48;;;21.30;57.60;;;;;;4951693;28;20686;-63
2022/04/02 12:35:13;;;;;;;2.38;1.38;;;21.30;57.60;;;;;;4951564;28;20277;-61
2022/04/02 12:37:45;;;;;;;1.20;1.10;;;21.30;57.60;;;;;;4951442;28;20284;-63
2022/04/02 12:40:21;;;;;;;1.90;1.30;;;21.30;57.60;;;;;;4951666;28;20207;-61
2022/04/02 12:42:52;;;;;;;1.42;1.17;;;21.30;58.20;;;;;;4952804;28;20202;-62
2022/04/02 12:45:24;;;;;;;1.75;1.20;;;21.30;57.70;;;;;;4955104;28;20290;-61
2022/04/02 12:48:03;;;;;;;3.00;1.65;;;21.30;57.70;;;;;;4955211;28;20589;-60
2022/04/02 12:50:37;;;;;;;3.35;1.50;;;21.30;57.70;;;;;;4955358;28;20198;-61
2022/04/02 12:53:09;;;;;;;1.38;1.27;;;21.30;57.70;;;;;;4955118;28;20670;-60
2022/04/02 12:55:40;;;;;;;1.73;1.30;;;21.30;57.70;;;;;;4967519;23;20249;-57
2022/04/02 12:58:12;;;;;;;2.17;1.45;;;21.30;57.70;;;;;;4947583;28;20322;-58
2022/04/02 13:00:47;;;;;;;2.75;1.45;;;21.30;57.80;;;;;;4936015;29;20196;-57
2022/04/02 13:03:34;;;;;;;1.33;1.23;;;21.20;57.70;;;;;;4935831;29;20290;-56
2022/04/02 13:06:09;;;;;;;2.05;1.30;;;21.20;57.80;;;;;;4935518;29;20200;-56
2022/04/02 13:08:59;;;;;;;2.92;1.60;;;21.20;57.80;;;;;;4935129;29;20211;-58
2022/04/02 13:11:59;;;;;;;1.65;1.40;;;21.20;57.80;;;;;;4935438;29;20210;-59
2022/04/02 13:14:31;;;;;;;1.75;1.60;;;21.20;58.40;;;;;;4935425;29;20669;-57
2022/04/02 13:17:10;;;;;;;1.50;1.23;;;21.20;57.80;;;;;;4935182;29;20306;-59
2022/04/02 13:22:43;;;;;;;1.95;1.40;;;21.20;57.80;;;;;;4935724;29;20690;-59
2022/04/02 13:25:16;;;;;;;1.52;1.40;;;21.20;57.80;;;;;;4935183;29;20198;-56
2022/04/02 13:28:11;;;;;;;1.70;1.33;;;21.10;57.80;;;;;;4935139;29;20220;-55
2022/04/02 13:30:44;;;;;;;1.95;1.48;;;21.20;57.90;;;;;;4934829;29;20278;-54
2022/04/02 13:33:52;;;;;;;2.00;1.60;;;21.20;57.80;;;;;;4934888;29;20209;-57
2022/04/02 13:36:37;;;;;;;1.58;1.25;;;21.20;57.90;;;;;;4934755;29;20195;-58
2022/04/02 13:39:12;;;;;;;1.55;1.20;;;21.20;57.80;;;;;;4934870;29;20314;-57
2022/04/02 13:41:44;;;;;;;1.65;1.33;;;21.10;58.40;;;;;;4934947;29;20199;-58
2022/04/02 13:44:20;;;;;;;2.20;1.40;;;21.10;57.80;;;;;;4935157;29;20286;-58
2022/04/02 13:46:53;;;;;;;2.40;1.40;;;21.10;57.90;;;;;;4934904;29;20663;-58
2022/04/02 13:49:31;;;;;;;2.35;1.40;;;21.10;57.90;;;;;;4934444;29;20219;-55
2022/04/02 13:52:02;;;;;;;1.60;1.38;;;21.10;57.90;;;;;;4934665;29;20283;-58
2022/04/02 13:57:13;;;;;;;1.85;1.30;;;21.10;58.00;;;;;;4952119;28;20226;-58
2022/04/02 13:59:59;;;;;;;1.50;1.40;;;21.10;58.00;;;;;;4934790;29;20290;-61
2022/04/02 14:02:30;;;;;;;1.52;1.42;;;21.10;58.00;;;;;;4934751;29;21471;-61
2022/04/02 14:05:12;;;;;;;1.77;1.20;;;21.00;57.90;;;;;;4934798;29;20286;-57
2022/04/02 14:07:59;;;;;;;2.10;1.55;;;21.10;58.00;;;;;;4934632;29;20386;-61
2022/04/02 14:10:36;;;;;;;2.38;1.55;;;21.00;58.00;;;;;;4934448;29;20274;-56
2022/04/02 14:13:14;;;;;;;2.55;1.40;;;21.00;58.00;;;;;;4934428;29;20203;-59
2022/04/02 14:15:52;;;;;;;1.30;1.20;;;21.00;58.00;;;;;;4934358;29;20335;-59
2022/04/02 14:18:25;;;;;;;1.10;1.00;;;21.00;58.00;;;;;;4934549;29;20239;-61
2022/04/02 14:20:58;;;;;;;1.65;1.50;;;21.00;58.00;;;;;;4934216;29;20231;-60
2022/04/02 14:23:36;;;;;;;1.73;1.55;;;21.00;58.00;;;;;;4934336;29;20203;-57
2022/04/02 14:26:38;;;;;;;1.70;1.23;;;21.00;58.00;;;;;;4934902;29;20278;-59
2022/04/02 14:29:33;;;;;;;1.67;1.40;;;21.00;58.00;;;;;;4933733;29;20254;-61
2022/04/02 14:32:53;;;;;;;1.70;1.50;;;21.00;58.00;;;;;;4933874;29;20290;-61
2022/04/02 14:36:00;;;;;;;2.35;1.10;;;21.00;58.00;;;;;;4934390;29;20206;-61
2022/04/02 14:39:04;;;;;;;1.90;1.40;;;20.90;57.90;;;;;;4934014;29;20314;-62
2022/04/02 14:41:54;;;;;;;1.73;1.23;;;21.00;58.00;;;;;;4933682;29;20293;-61
2022/04/02 14:45:09;;;;;;;2.05;1.42;;;21.00;58.00;;;;;;4916156;29;20571;-57
2022/04/02 14:48:11;;;;;;;2.70;1.42;;;20.90;58.00;;;;;;4920739;29;20278;-61
2022/04/02 14:51:13;;;;;;;2.25;1.35;;;20.90;58.00;;;;;;4933779;29;20223;-59
2022/04/02 14:54:19;;;;;;;1.45;1.35;;;20.90;58.10;;;;;;4933615;29;20199;-60
2022/04/02 14:57:26;;;;;;;2.00;1.30;;;20.90;58.10;;;;;;4962177;23;20837;-59
2022/04/02 15:00:29;;;;;;;1.92;1.30;;;20.80;58.00;;;;;;4904780;29;20290;-60
2022/04/02 15:03:42;;;;;;;1.55;1.30;;;20.90;58.10;;;;;;4933048;29;20291;-59
2022/04/02 15:06:16;;;;;;;1.50;1.30;;;20.90;58.10;;;;;;4932780;29;20293;-60
2022/04/02 15:09:22;;;;;;;1.38;1.27;;;20.80;58.00;;;;;;4933043;29;20310;-57
2022/04/02 15:11:59;;;;;;;1.50;1.40;;;20.80;58.10;;;;;;4932375;29;20203;-59
2022/04/02 15:14:31;;;;;;;2.72;1.38;;;20.80;58.10;;;;;;4932490;29;20680;-59
2022/04/02 15:17:22;;;;;;;2.03;1.10;;;20.80;58.10;;;;;;4933059;29;20311;-60
2022/04/02 15:19:52;;;;;;;1.40;1.30;;;20.80;58.70;;;;;;4932989;29;20279;-60
2022/04/02 15:22:28;;;;;;;1.20;1.10;;;20.80;58.10;;;;;;4933418;29;20199;-60
2022/04/02 15:25:03;;;;;;;1.35;1.20;;;20.80;58.10;;;;;;4933646;29;20205;-60
2022/04/02 15:27:53;;;;;;;1.83;1.55;;;20.80;58.10;;;;;;4932894;29;20374;-60
2022/04/02 15:30:28;;;;;;;1.20;1.10;;;20.80;58.20;;;;;;4932736;29;20239;-59
2022/04/02 15:33:14;;;;;;;1.60;1.17;;;20.80;58.20;;;;;;4932965;29;20207;-59
2022/04/02 15:35:48;;;;;;;1.95;1.13;;;20.80;58.20;;;;;;4933283;29;20202;-60
2022/04/02 15:38:34;;;;;;;2.40;1.42;;;20.80;58.20;;;;;;4933087;29;20231;-61
2022/04/02 15:41:06;;;;;;;1.55;1.33;;;20.80;58.20;;;;;;4932963;29;20730;-60
2022/04/02 15:43:38;;;;;;;1.55;1.10;;;20.70;58.10;;;;;;4932715;29;20294;-58
2022/04/02 15:46:36;;;;;;;1.42;1.25;;;20.70;58.20;;;;;;4932851;29;20210;-58
2022/04/02 15:49:34;;;;;;;1.77;1.20;;;20.70;58.20;;;;;;4932577;29;20220;-59
2022/04/02 15:52:23;;;;;;;1.63;1.50;;;20.70;58.20;;;;;;4932514;29;20200;-57
2022/04/02 15:55:02;;;;;;;1.27;1.05;;;20.70;58.20;;;;;;4946745;23;20290;-58
2022/04/02 15:57:33;;;;;;;1.38;1.23;;;20.70;58.20;;;;;;4931619;29;20346;-59
2022/04/02 16:00:27;;;;;;;1.30;1.20;;;20.70;58.20;;;;;;4932894;29;20195;-61
2022/04/02 16:02:58;;;;;;;1.45;1.23;;;20.70;58.80;;;;;;4931515;29;20295;-59
2022/04/02 16:05:35;;;;;;;1.40;1.30;;;20.70;58.20;;;;;;4931177;29;20767;-59
2022/04/02 16:08:13;;;;;;;1.40;1.30;;;20.70;58.20;;;;;;4917049;29;20215;-58
2022/04/02 16:10:49;;;;;;;1.40;1.30;;;20.70;58.20;;;;;;4914017;29;20231;-61
2022/04/02 16:13:28;;;;;;;1.58;1.30;;;20.70;58.80;;;;;;4923231;29;20290;-61
2022/04/02 16:16:09;;;;;;;1.45;1.27;;;20.60;58.20;;;;;;4933082;29;20199;-60